Time;durP1;ratioP1;P1;durP2;ratioP2;P2;SDS_P1;SDS_P2;PMS_P1;PMS_P2;Temp;Humidity;BMP_temperature;BMP_pressure;BME280_temperature;BME280_humidity;BME280_pressure;Samples;Min_cycle;Max_cycle;Signal;HPM_P1;HPM_P2
2023/12/13 00:01:43;;;;;;;2.20;0.87;;;8.00;99.90;;;;;;4988581;28;20270;-31
2023/12/13 00:04:09;;;;;;;0.80;0.70;;;8.00;99.90;;;;;;4988467;28;20211;-31
2023/12/13 00:06:35;;;;;;;1.37;0.80;;;8.00;99.90;;;;;;5009957;28;20191;-32
2023/12/13 00:09:04;;;;;;;1.93;1.30;;;7.90;99.90;;;;;;5007631;28;20179;-31
2023/12/13 00:11:29;;;;;;;1.57;1.27;;;7.90;99.90;;;;;;4989639;28;20187;-32
2023/12/13 00:13:55;;;;;;;2.33;1.47;;;7.90;99.90;;;;;;5006416;28;20195;-32
2023/12/13 00:16:23;;;;;;;2.60;1.63;;;7.80;99.90;;;;;;5008335;28;20179;-32
2023/12/13 00:18:49;;;;;;;2.53;1.27;;;7.80;99.90;;;;;;5009223;28;20198;-32
2023/12/13 00:21:18;;;;;;;1.00;0.90;;;7.80;99.90;;;;;;5010490;28;20211;-32
2023/12/13 00:23:45;;;;;;;1.37;0.90;;;7.70;99.90;;;;;;4986726;28;20203;-31
2023/12/13 00:26:15;;;;;;;2.10;0.63;;;7.70;99.90;;;;;;5006354;28;20278;-32
2023/12/13 00:28:41;;;;;;;2.20;0.70;;;7.70;99.90;;;;;;5009566;28;20183;-32
2023/12/13 00:31:11;;;;;;;2.57;0.80;;;7.70;99.90;;;;;;5007530;28;20187;-31
2023/12/13 00:33:37;;;;;;;1.83;0.73;;;7.60;99.90;;;;;;5014619;28;20212;-32
2023/12/13 00:36:04;;;;;;;1.10;0.50;;;7.60;99.90;;;;;;4988834;28;20184;-32
2023/12/13 00:38:29;;;;;;;1.00;0.60;;;7.50;99.90;;;;;;4992081;28;20192;-31
2023/12/13 00:40:55;;;;;;;1.40;0.63;;;7.60;99.90;;;;;;5005762;28;20273;-32
2023/12/13 00:43:21;;;;;;;1.87;0.60;;;7.50;99.90;;;;;;5008830;28;20183;-32
2023/12/13 00:45:48;;;;;;;2.03;0.60;;;7.50;99.90;;;;;;4992818;28;20275;-31
2023/12/13 00:48:14;;;;;;;1.00;0.57;;;7.50;99.90;;;;;;4988317;28;20230;-32
2023/12/13 00:50:40;;;;;;;1.97;0.60;;;7.40;99.90;;;;;;5000683;28;20211;-31
2023/12/13 00:53:06;;;;;;;2.13;0.70;;;7.40;99.90;;;;;;4992068;28;20183;-31
2023/12/13 00:55:32;;;;;;;5.00;0.97;;;7.40;99.90;;;;;;5001366;28;20237;-32
2023/12/13 00:57:58;;;;;;;3.23;0.80;;;7.40;99.90;;;;;;5009006;28;20186;-31
2023/12/13 01:00:24;;;;;;;1.60;0.50;;;7.30;99.90;;;;;;5009516;28;20207;-31
2023/12/13 01:02:49;;;;;;;2.47;0.60;;;7.30;99.90;;;;;;5007737;28;20239;-32
2023/12/13 01:05:15;;;;;;;2.80;0.70;;;7.30;99.90;;;;;;5023467;28;20203;-32
2023/12/13 01:07:41;;;;;;;2.37;0.80;;;7.20;99.90;;;;;;5006424;28;20219;-32
2023/12/13 01:10:08;;;;;;;1.30;0.70;;;7.20;99.90;;;;;;4992773;28;20187;-31
2023/12/13 01:12:33;;;;;;;1.40;0.70;;;7.20;99.90;;;;;;5008852;28;20236;-32
2023/12/13 01:14:59;;;;;;;3.80;1.00;;;7.20;99.90;;;;;;5008883;28;20203;-32
2023/12/13 01:17:25;;;;;;;0.80;0.60;;;7.10;99.90;;;;;;5008255;28;20213;-32
2023/12/13 01:19:52;;;;;;;0.80;0.70;;;7.00;99.90;;;;;;5000591;28;20187;-32
2023/12/13 01:22:21;;;;;;;3.23;0.50;;;7.00;99.90;;;;;;5009173;28;20199;-31
2023/12/13 01:24:47;;;;;;;1.20;0.43;;;6.90;99.90;;;;;;5009120;28;20207;-32
2023/12/13 01:27:13;;;;;;;1.50;0.60;;;6.90;99.90;;;;;;5010107;28;20278;-32
2023/12/13 01:29:38;;;;;;;1.23;0.50;;;6.80;99.90;;;;;;5008878;28;20275;-32
2023/12/13 01:32:04;;;;;;;0.63;0.40;;;6.70;99.90;;;;;;5009123;28;20184;-31
2023/12/13 01:34:30;;;;;;;1.53;0.60;;;6.60;99.90;;;;;;5027393;28;20245;-32
2023/12/13 01:36:56;;;;;;;1.57;0.70;;;6.60;99.90;;;;;;5017859;28;20240;-32
2023/12/13 01:39:22;;;;;;;1.73;0.60;;;6.50;99.90;;;;;;5006605;28;20190;-32
2023/12/13 01:41:48;;;;;;;1.73;0.60;;;6.50;99.90;;;;;;5011572;28;20261;-32
2023/12/13 01:44:14;;;;;;;1.10;0.50;;;6.40;99.90;;;;;;5010828;28;20214;-31
2023/12/13 01:46:40;;;;;;;1.23;0.53;;;6.40;99.90;;;;;;5012521;28;20175;-32
2023/12/13 01:49:08;;;;;;;1.90;0.60;;;6.40;99.90;;;;;;5003962;28;20326;-32
2023/12/13 01:51:35;;;;;;;1.27;0.70;;;6.40;99.90;;;;;;5012657;28;20266;-31
2023/12/13 01:54:08;;;;;;;1.73;0.77;;;6.30;99.90;;;;;;5012758;28;20219;-31
2023/12/13 01:56:34;;;;;;;1.03;0.60;;;6.20;99.90;;;;;;5011266;28;20187;-31
2023/12/13 01:59:00;;;;;;;3.60;0.90;;;6.20;99.90;;;;;;5012209;28;20186;-31
2023/12/13 02:01:26;;;;;;;6.17;0.97;;;6.10;99.90;;;;;;5012166;28;20204;-32
2023/12/13 02:03:52;;;;;;;1.13;0.70;;;6.10;99.90;;;;;;5011664;28;20199;-31
2023/12/13 02:06:20;;;;;;;1.40;1.00;;;6.00;99.90;;;;;;5012416;28;20202;-31
2023/12/13 02:08:46;;;;;;;2.50;0.70;;;5.90;99.90;;;;;;5021434;28;20188;-31
2023/12/13 02:11:12;;;;;;;2.50;0.70;;;5.90;99.90;;;;;;5009794;28;20195;-32
2023/12/13 02:13:38;;;;;;;4.13;1.00;;;5.90;99.90;;;;;;5012321;28;20293;-32
2023/12/13 02:16:04;;;;;;;1.87;0.60;;;6.00;99.90;;;;;;4992566;28;20192;-31
2023/12/13 02:18:30;;;;;;;1.77;0.73;;;5.90;99.90;;;;;;5011772;28;20183;-32
2023/12/13 02:20:56;;;;;;;2.00;0.70;;;6.00;99.90;;;;;;5005426;28;20210;-31
2023/12/13 02:23:21;;;;;;;2.43;1.10;;;6.00;99.90;;;;;;5011846;28;20190;-31
2023/12/13 02:25:51;;;;;;;3.90;0.90;;;6.00;99.90;;;;;;5012027;28;20207;-31
2023/12/13 02:28:17;;;;;;;0.80;0.60;;;6.00;99.90;;;;;;4992332;28;20188;-32
2023/12/13 02:30:46;;;;;;;0.50;0.50;;;6.00;99.90;;;;;;5011616;28;20688;-32
2023/12/13 02:33:11;;;;;;;1.80;0.70;;;5.90;99.90;;;;;;5011604;28;20207;-32
2023/12/13 02:35:37;;;;;;;3.60;0.80;;;5.90;99.90;;;;;;5012110;28;20276;-31
2023/12/13 02:38:03;;;;;;;1.90;0.80;;;5.80;99.90;;;;;;5018226;28;20261;-31
2023/12/13 02:40:29;;;;;;;0.77;0.60;;;5.90;99.90;;;;;;5012612;28;20273;-33
2023/12/13 02:42:55;;;;;;;2.77;0.70;;;5.90;99.90;;;;;;5010995;28;20210;-33
2023/12/13 02:45:20;;;;;;;0.83;0.70;;;5.90;99.90;;;;;;5010468;28;20291;-31
2023/12/13 02:47:49;;;;;;;4.27;0.60;;;5.90;99.90;;;;;;5010026;28;20187;-31
2023/12/13 02:50:15;;;;;;;1.57;0.50;;;5.90;99.90;;;;;;5006634;28;20210;-31
2023/12/13 02:52:41;;;;;;;2.17;0.73;;;5.90;99.90;;;;;;5012040;28;20187;-31
2023/12/13 02:55:11;;;;;;;1.60;0.70;;;5.90;99.90;;;;;;5011299;28;20207;-32
2023/12/13 02:57:38;;;;;;;1.60;0.70;;;5.90;99.90;;;;;;5010846;28;20187;-32
2023/12/13 03:00:05;;;;;;;2.00;0.70;;;5.90;99.90;;;;;;5011065;28;20188;-31
2023/12/13 03:02:32;;;;;;;1.37;0.60;;;6.00;99.90;;;;;;5011027;28;20218;-31
2023/12/13 03:04:59;;;;;;;1.83;0.80;;;6.00;99.90;;;;;;5010853;28;20230;-32
2023/12/13 03:07:25;;;;;;;2.63;0.80;;;6.10;99.90;;;;;;5000922;28;20174;-31
2023/12/13 03:09:51;;;;;;;3.33;0.70;;;6.10;99.90;;;;;;5010329;28;20334;-31
2023/12/13 03:12:16;;;;;;;4.33;0.73;;;6.10;99.90;;;;;;5010916;28;20241;-31
2023/12/13 03:14:42;;;;;;;0.90;0.63;;;6.10;99.90;;;;;;5011073;28;20214;-32
2023/12/13 03:17:08;;;;;;;1.80;1.00;;;6.10;99.90;;;;;;5010848;28;20195;-31
2023/12/13 03:19:34;;;;;;;2.03;0.80;;;6.10;99.90;;;;;;5010517;28;20207;-32
2023/12/13 03:21:59;;;;;;;1.43;0.80;;;6.10;99.90;;;;;;5009903;28;20211;-32
2023/12/13 03:24:25;;;;;;;2.70;0.70;;;6.10;99.90;;;;;;5010423;28;20202;-31
2023/12/13 03:26:51;;;;;;;1.93;0.67;;;6.10;99.90;;;;;;5010986;28;20215;-31
2023/12/13 03:29:17;;;;;;;0.80;0.50;;;6.10;99.90;;;;;;5009052;28;20210;-31
2023/12/13 03:31:43;;;;;;;1.00;0.57;;;6.00;99.90;;;;;;5011184;28;20281;-31
2023/12/13 03:34:09;;;;;;;1.43;0.60;;;6.00;99.90;;;;;;5009422;28;20314;-32
2023/12/13 03:36:35;;;;;;;1.37;0.60;;;6.00;99.90;;;;;;5010319;28;20310;-31
2023/12/13 03:39:01;;;;;;;2.37;0.60;;;5.90;99.90;;;;;;4994463;28;20195;-31
2023/12/13 03:41:26;;;;;;;1.30;0.70;;;6.00;99.90;;;;;;5011933;28;20210;-32
2023/12/13 03:43:52;;;;;;;1.70;0.50;;;6.00;99.90;;;;;;5005948;28;20203;-31
2023/12/13 03:46:18;;;;;;;1.47;0.70;;;6.00;99.90;;;;;;5007303;28;20261;-31
2023/12/13 03:48:44;;;;;;;1.70;0.70;;;6.10;99.90;;;;;;4993988;28;20187;-32
2023/12/13 03:51:10;;;;;;;1.23;0.80;;;6.20;99.90;;;;;;5005991;28;20282;-31
2023/12/13 03:53:39;;;;;;;1.03;0.90;;;6.20;99.90;;;;;;5026948;28;20207;-31
2023/12/13 03:56:05;;;;;;;1.03;0.70;;;6.20;99.90;;;;;;5009755;28;20191;-32
2023/12/13 03:58:31;;;;;;;0.50;0.50;;;6.20;99.90;;;;;;5009533;28;20188;-31
2023/12/13 04:00:59;;;;;;;0.83;0.50;;;6.20;99.90;;;;;;5010187;28;20205;-31
2023/12/13 04:03:25;;;;;;;0.73;0.73;;;6.20;99.90;;;;;;5009100;28;20270;-31
2023/12/13 04:05:51;;;;;;;0.63;0.63;;;6.20;99.90;;;;;;5009694;28;20269;-31
2023/12/13 04:08:17;;;;;;;1.00;0.90;;;6.30;99.90;;;;;;5009252;28;20187;-32
2023/12/13 04:10:42;;;;;;;0.87;0.60;;;6.30;99.90;;;;;;4984933;28;20294;-31
2023/12/13 04:13:08;;;;;;;0.90;0.80;;;6.30;99.90;;;;;;5006352;28;20535;-32
2023/12/13 04:15:34;;;;;;;6.83;2.27;;;6.30;99.90;;;;;;4993321;28;20207;-31
2023/12/13 04:18:00;;;;;;;9.23;3.60;;;6.30;99.90;;;;;;5010053;28;20247;-31
2023/12/13 04:20:26;;;;;;;7.37;3.47;;;6.40;99.90;;;;;;4991703;28;20668;-32
2023/12/13 04:22:52;;;;;;;3.97;2.40;;;6.30;99.90;;;;;;5007464;28;20215;-31
2023/12/13 04:25:18;;;;;;;2.87;1.30;;;6.30;99.90;;;;;;4991491;28;20217;-31
2023/12/13 04:27:45;;;;;;;2.40;1.43;;;6.30;99.90;;;;;;4990929;28;20187;-32
2023/12/13 04:30:11;;;;;;;2.23;1.30;;;6.30;99.90;;;;;;4993237;28;20187;-31
2023/12/13 04:32:38;;;;;;;2.50;1.10;;;6.30;99.90;;;;;;5007680;28;20186;-32
2023/12/13 04:35:05;;;;;;;2.60;0.80;;;6.30;99.90;;;;;;5008674;28;20245;-31
2023/12/13 04:37:31;;;;;;;2.97;2.03;;;6.30;99.90;;;;;;5008629;28;20184;-31
2023/12/13 04:39:58;;;;;;;4.30;3.10;;;6.30;99.90;;;;;;4988588;28;20283;-31
2023/12/13 04:42:24;;;;;;;3.97;2.10;;;6.30;99.90;;;;;;4990521;28;20225;-31
2023/12/13 04:44:50;;;;;;;2.57;1.20;;;6.30;99.90;;;;;;4992604;28;20207;-31
2023/12/13 04:47:17;;;;;;;2.93;1.20;;;6.30;99.90;;;;;;4992636;28;20250;-31
2023/12/13 04:49:43;;;;;;;1.90;0.80;;;6.30;99.90;;;;;;5009385;28;20260;-31
2023/12/13 04:52:09;;;;;;;1.40;1.30;;;6.30;99.90;;;;;;5009722;28;20191;-30
2023/12/13 04:54:35;;;;;;;2.40;0.90;;;6.30;99.90;;;;;;5009279;28;20203;-31
2023/12/13 04:57:01;;;;;;;1.67;0.87;;;6.20;99.90;;;;;;5009244;28;20211;-31
2023/12/13 04:59:27;;;;;;;5.07;1.20;;;6.20;99.90;;;;;;5009020;28;20182;-32
2023/12/13 05:01:53;;;;;;;1.70;1.10;;;6.10;99.90;;;;;;5009277;28;20209;-32
2023/12/13 05:04:19;;;;;;;2.20;1.43;;;6.10;99.90;;;;;;5008692;28;20215;-31
2023/12/13 05:06:45;;;;;;;2.50;1.70;;;6.10;99.90;;;;;;5009019;28;20176;-31
2023/12/13 05:09:11;;;;;;;4.03;2.33;;;6.10;99.90;;;;;;5012172;28;20186;-30
2023/12/13 05:11:37;;;;;;;2.77;1.93;;;6.10;99.90;;;;;;4990878;28;20273;-31
2023/12/13 05:14:03;;;;;;;1.20;1.10;;;6.20;99.90;;;;;;5012405;28;20349;-31
2023/12/13 05:16:29;;;;;;;1.20;1.10;;;6.20;99.90;;;;;;5012493;28;20218;-32
2023/12/13 05:18:55;;;;;;;1.47;0.90;;;6.20;99.90;;;;;;5015641;28;20651;-31
2023/12/13 05:21:21;;;;;;;1.87;1.30;;;6.20;99.90;;;;;;5015620;28;20207;-32
2023/12/13 05:23:48;;;;;;;4.50;1.50;;;6.20;99.90;;;;;;5016194;28;20202;-33
2023/12/13 05:26:13;;;;;;;4.77;1.53;;;6.30;99.90;;;;;;5015726;28;20271;-31
2023/12/13 05:28:39;;;;;;;2.87;1.33;;;6.30;99.90;;;;;;5015145;28;20183;-32
2023/12/13 05:31:05;;;;;;;1.27;1.17;;;6.30;99.90;;;;;;5015804;28;20186;-32
2023/12/13 05:33:31;;;;;;;1.23;1.10;;;6.20;99.90;;;;;;5015422;28;20226;-31
2023/12/13 05:35:57;;;;;;;1.40;1.10;;;6.20;99.90;;;;;;5013977;28;20202;-31
2023/12/13 05:38:23;;;;;;;1.20;1.10;;;6.20;99.90;;;;;;5024154;28;20654;-30
2023/12/13 05:40:49;;;;;;;1.43;1.27;;;6.20;99.90;;;;;;5002161;28;20188;-30
2023/12/13 05:43:15;;;;;;;1.87;1.30;;;6.10;99.90;;;;;;4994260;28;20190;-32
2023/12/13 05:45:40;;;;;;;1.47;1.30;;;6.10;99.90;;;;;;5015596;28;20179;-31
2023/12/13 05:48:06;;;;;;;3.90;2.70;;;6.10;99.90;;;;;;4998893;28;20198;-32
2023/12/13 05:50:32;;;;;;;2.27;1.80;;;6.10;99.90;;;;;;5015256;28;20187;-32
2023/12/13 05:52:58;;;;;;;9.43;8.17;;;6.10;99.90;;;;;;5015046;28;20238;-31
2023/12/13 05:55:24;;;;;;;5.40;3.87;;;6.10;99.90;;;;;;5014151;28;20321;-32
2023/12/13 05:57:50;;;;;;;2.40;2.20;;;6.10;99.90;;;;;;5015380;28;20258;-32
2023/12/13 06:00:16;;;;;;;2.50;1.83;;;6.10;99.90;;;;;;5014986;28;20286;-32
2023/12/13 06:02:42;;;;;;;5.33;3.07;;;6.10;99.90;;;;;;4997948;28;20222;-32
2023/12/13 06:05:08;;;;;;;3.17;1.80;;;6.10;99.90;;;;;;5014358;28;20203;-32
2023/12/13 06:07:35;;;;;;;3.13;1.70;;;6.10;99.90;;;;;;5022867;28;20182;-32
2023/12/13 06:10:00;;;;;;;2.20;1.80;;;6.10;99.90;;;;;;5005472;28;20193;-32
2023/12/13 06:12:26;;;;;;;1.60;1.50;;;6.10;99.90;;;;;;5015171;28;20194;-32
2023/12/13 06:14:52;;;;;;;2.47;1.83;;;6.10;99.90;;;;;;5015039;28;20302;-32
2023/12/13 06:17:18;;;;;;;6.07;1.90;;;6.10;99.90;;;;;;5013172;28;20187;-33
2023/12/13 06:19:44;;;;;;;4.53;2.10;;;6.20;99.90;;;;;;5011953;28;20195;-32
2023/12/13 06:22:11;;;;;;;4.07;2.07;;;6.20;99.90;;;;;;5011817;28;20207;-30
2023/12/13 06:24:37;;;;;;;3.50;1.73;;;6.30;99.90;;;;;;5005837;28;20204;-32
2023/12/13 06:27:03;;;;;;;3.33;1.87;;;6.30;99.90;;;;;;5019659;28;20183;-32
2023/12/13 06:29:29;;;;;;;4.33;2.10;;;6.40;99.90;;;;;;5009648;28;20223;-32
2023/12/13 06:31:56;;;;;;;3.77;2.17;;;6.40;99.90;;;;;;4992236;28;20217;-31
2023/12/13 06:34:22;;;;;;;2.77;1.93;;;6.50;99.90;;;;;;5007785;28;20222;-33
2023/12/13 06:36:48;;;;;;;5.17;2.27;;;6.50;99.90;;;;;;4991535;28;20184;-33
2023/12/13 06:39:14;;;;;;;3.80;2.23;;;6.50;99.90;;;;;;5009125;28;20191;-32
2023/12/13 06:41:40;;;;;;;4.57;2.20;;;6.60;99.90;;;;;;5008103;28;20261;-31
2023/12/13 06:44:06;;;;;;;4.00;2.13;;;6.60;99.90;;;;;;5010813;28;20202;-31
2023/12/13 06:46:33;;;;;;;3.93;2.30;;;6.60;99.90;;;;;;5007765;28;20278;-31
2023/12/13 06:48:59;;;;;;;3.63;2.03;;;6.60;99.90;;;;;;5005102;28;20210;-32
2023/12/13 06:51:25;;;;;;;3.80;2.17;;;6.60;99.90;;;;;;5004939;28;20182;-31
2023/12/13 06:53:51;;;;;;;6.33;2.07;;;6.60;99.90;;;;;;4989718;28;20215;-31
2023/12/13 06:56:17;;;;;;;3.70;2.00;;;6.60;99.90;;;;;;4989244;28;20182;-31
2023/12/13 06:58:43;;;;;;;4.00;2.00;;;6.60;99.90;;;;;;5028353;28;20179;-31
2023/12/13 07:01:09;;;;;;;2.07;1.50;;;6.50;99.90;;;;;;5012444;28;20281;-30
2023/12/13 07:03:35;;;;;;;2.00;1.80;;;6.50;99.90;;;;;;5018045;28;20209;-32
2023/12/13 07:06:03;;;;;;;4.37;1.70;;;6.50;99.90;;;;;;5017033;28;20197;-31
2023/12/13 07:08:28;;;;;;;2.17;1.90;;;6.50;99.90;;;;;;5010730;28;20275;-32
2023/12/13 07:10:54;;;;;;;3.57;2.27;;;6.50;99.90;;;;;;4993336;28;20214;-31
2023/12/13 07:13:20;;;;;;;2.70;2.33;;;6.50;99.90;;;;;;5012075;28;20241;-32
2023/12/13 07:15:46;;;;;;;3.33;2.27;;;6.50;99.90;;;;;;5001165;28;20191;-31
2023/12/13 07:18:12;;;;;;;5.23;2.33;;;6.50;99.90;;;;;;4995296;28;20179;-30
2023/12/13 07:20:39;;;;;;;5.43;2.47;;;6.50;99.90;;;;;;5006888;28;20194;-32
2023/12/13 07:23:05;;;;;;;7.13;2.20;;;6.50;99.90;;;;;;5009863;28;20214;-32
2023/12/13 07:25:31;;;;;;;5.47;2.10;;;6.50;99.90;;;;;;5007372;28;20179;-34
2023/12/13 07:27:58;;;;;;;5.33;1.70;;;6.50;99.90;;;;;;4992773;28;20184;-33
2023/12/13 07:30:24;;;;;;;2.77;1.47;;;6.50;99.90;;;;;;4993649;28;20187;-32
2023/12/13 07:32:53;;;;;;;3.93;1.90;;;6.50;99.90;;;;;;5010164;28;20241;-32
2023/12/13 07:35:19;;;;;;;5.30;1.60;;;6.50;99.90;;;;;;5008815;28;20223;-32
2023/12/13 07:37:48;;;;;;;4.23;1.50;;;6.60;99.90;;;;;;5005439;28;20196;-31
2023/12/13 07:40:14;;;;;;;4.17;1.47;;;6.60;99.90;;;;;;4995818;28;20184;-32
2023/12/13 07:42:42;;;;;;;2.43;2.03;;;6.60;99.90;;;;;;5008094;28;20219;-31
2023/12/13 07:45:10;;;;;;;48.30;18.17;;;6.60;99.90;;;;;;5010006;28;20202;-32
2023/12/13 07:47:36;;;;;;;24.03;9.73;;;6.60;99.90;;;;;;5007035;28;20199;-33
2023/12/13 07:50:03;;;;;;;7.13;3.50;;;6.60;99.90;;;;;;5007166;28;20179;-32
2023/12/13 07:52:29;;;;;;;5.70;2.30;;;6.60;99.90;;;;;;5003118;28;20192;-33
2023/12/13 07:54:55;;;;;;;5.83;1.90;;;6.60;99.90;;;;;;4998117;28;20227;-32
2023/12/13 07:57:21;;;;;;;3.00;1.63;;;6.60;99.90;;;;;;5019677;28;20192;-32
2023/12/13 07:59:49;;;;;;;3.20;1.70;;;6.60;99.90;;;;;;5011881;28;20187;-33
2023/12/13 08:02:15;;;;;;;2.10;1.60;;;6.60;99.90;;;;;;5009431;28;20269;-32
2023/12/13 08:04:42;;;;;;;4.13;2.50;;;6.60;99.90;;;;;;5007793;28;20199;-32
2023/12/13 08:07:09;;;;;;;3.53;2.43;;;6.60;99.90;;;;;;5009450;28;20223;-32
2023/12/13 08:09:35;;;;;;;3.17;1.87;;;6.60;99.90;;;;;;4991913;28;20207;-32
2023/12/13 08:12:01;;;;;;;3.37;1.70;;;6.60;99.90;;;;;;5009062;28;20187;-32
2023/12/13 08:14:30;;;;;;;2.90;1.70;;;6.60;99.90;;;;;;5022347;28;20262;-31
2023/12/13 08:16:57;;;;;;;4.17;1.97;;;6.60;99.90;;;;;;5001823;28;20250;-31
2023/12/13 08:19:23;;;;;;;4.07;1.50;;;6.70;99.90;;;;;;5009935;28;20187;-31
2023/12/13 08:21:51;;;;;;;2.93;1.50;;;6.70;99.90;;;;;;5010451;28;20219;-33
2023/12/13 08:24:17;;;;;;;3.17;1.70;;;6.70;99.90;;;;;;5008901;28;20199;-30
2023/12/13 08:26:43;;;;;;;2.73;1.80;;;6.70;99.90;;;;;;5008961;28;20323;-32
2023/12/13 08:29:10;;;;;;;3.47;1.50;;;6.70;99.90;;;;;;5009362;28;20270;-32
2023/12/13 08:31:36;;;;;;;2.30;1.37;;;6.70;99.90;;;;;;5008043;28;20255;-32
2023/12/13 08:34:02;;;;;;;2.40;1.30;;;6.80;99.90;;;;;;5011418;28;20215;-31
2023/12/13 08:36:28;;;;;;;4.20;1.63;;;6.80;99.90;;;;;;4993433;28;20180;-31
2023/12/13 08:38:54;;;;;;;2.83;1.20;;;6.80;99.90;;;;;;4985539;28;20198;-31
2023/12/13 08:41:20;;;;;;;9.13;3.53;;;6.80;99.90;;;;;;5012167;28;20211;-31
2023/12/13 08:43:46;;;;;;;8.80;3.50;;;6.90;99.90;;;;;;5010966;28;20222;-32
2023/12/13 08:46:12;;;;;;;5.43;2.90;;;6.90;99.90;;;;;;5021536;28;20216;-31
2023/12/13 08:48:38;;;;;;;11.27;4.43;;;6.90;99.90;;;;;;5007146;28;20184;-31
2023/12/13 08:51:04;;;;;;;98.70;54.47;;;6.90;99.90;;;;;;5008109;28;20190;-32
2023/12/13 08:53:30;;;;;;;17.40;11.23;;;7.00;99.90;;;;;;4990199;28;20196;-31
2023/12/13 08:55:56;;;;;;;12.23;5.30;;;7.00;99.90;;;;;;5009235;28;20202;-32
2023/12/13 08:58:22;;;;;;;6.37;4.30;;;7.00;99.90;;;;;;5009488;28;20233;-31
2023/12/13 09:00:48;;;;;;;7.43;4.00;;;7.00;99.90;;;;;;5009672;28;20232;-32
2023/12/13 09:03:13;;;;;;;4.43;3.40;;;7.00;99.90;;;;;;5008550;28;20203;-31
2023/12/13 09:05:39;;;;;;;5.93;3.60;;;7.00;99.90;;;;;;5007170;28;20187;-31
2023/12/13 09:08:05;;;;;;;4.00;3.47;;;7.00;99.90;;;;;;4996638;28;20184;-32
2023/12/13 09:10:34;;;;;;;5.20;3.50;;;7.10;99.90;;;;;;4995031;28;20179;-32
2023/12/13 09:13:02;;;;;;;5.07;3.67;;;7.10;99.90;;;;;;5008881;28;20183;-32
2023/12/13 09:15:31;;;;;;;4.70;3.60;;;7.10;99.90;;;;;;5008397;28;20285;-32
2023/12/13 09:17:57;;;;;;;6.03;4.03;;;7.10;99.90;;;;;;5010160;28;20187;-32
2023/12/13 09:20:23;;;;;;;6.53;4.63;;;7.10;99.90;;;;;;5007732;28;20183;-32
2023/12/13 09:22:49;;;;;;;7.40;5.20;;;7.20;99.90;;;;;;5006821;28;20223;-32
2023/12/13 09:25:15;;;;;;;10.27;5.90;;;7.20;99.90;;;;;;5008494;28;20278;-31
2023/12/13 09:27:46;;;;;;;9.67;5.63;;;7.30;99.90;;;;;;5008713;28;20182;-31
2023/12/13 09:30:13;;;;;;;8.07;5.77;;;7.40;99.90;;;;;;5002748;28;20191;-32
2023/12/13 09:32:42;;;;;;;6.67;5.07;;;7.50;99.90;;;;;;4982052;28;20212;-32
2023/12/13 09:35:08;;;;;;;8.30;4.77;;;7.50;99.90;;;;;;5005363;28;20242;-32
2023/12/13 09:37:34;;;;;;;5.93;3.87;;;7.60;99.90;;;;;;5004476;28;20235;-32
2023/12/13 09:40:01;;;;;;;5.63;3.70;;;7.70;99.90;;;;;;5008150;28;20276;-31
2023/12/13 09:42:26;;;;;;;4.33;2.73;;;7.70;99.90;;;;;;5009095;28;20668;-31
2023/12/13 09:44:53;;;;;;;4.97;2.77;;;7.80;99.90;;;;;;5007355;28;20230;-32
2023/12/13 09:47:23;;;;;;;5.53;3.13;;;7.80;99.90;;;;;;5007819;28;20184;-31
2023/12/13 09:49:53;;;;;;;10.57;5.80;;;7.90;99.90;;;;;;5007108;28;20278;-32
2023/12/13 09:52:21;;;;;;;5.93;3.53;;;7.90;99.90;;;;;;5007809;28;20218;-31
2023/12/13 09:54:47;;;;;;;5.00;2.63;;;7.90;99.90;;;;;;5009280;28;20207;-31
2023/12/13 09:57:14;;;;;;;4.83;2.80;;;7.90;99.90;;;;;;5005942;28;20191;-31
2023/12/13 09:59:41;;;;;;;6.67;2.70;;;8.00;99.90;;;;;;5004258;28;20233;-31
2023/12/13 10:02:16;;;;;;;5.33;3.10;;;8.00;99.90;;;;;;4995423;28;20199;-31
2023/12/13 10:04:44;;;;;;;5.70;2.80;;;8.00;99.90;;;;;;4994621;28;20298;-32
2023/12/13 10:07:11;;;;;;;6.23;3.07;;;8.00;99.90;;;;;;5011636;28;20203;-32
2023/12/13 10:09:37;;;;;;;5.33;2.40;;;8.00;99.90;;;;;;4987440;28;20211;-31
2023/12/13 10:12:07;;;;;;;4.10;2.30;;;8.00;99.90;;;;;;4994274;28;20214;-31
2023/12/13 10:14:37;;;;;;;3.83;2.53;;;8.10;99.90;;;;;;5012090;28;20207;-31
2023/12/13 10:17:03;;;;;;;4.67;2.40;;;8.20;99.90;;;;;;4987925;28;20184;-32
2023/12/13 10:19:32;;;;;;;4.57;2.10;;;8.20;99.90;;;;;;5011703;28;20191;-32
2023/12/13 10:21:59;;;;;;;3.60;2.10;;;8.30;99.90;;;;;;5011218;28;20215;-32
2023/12/13 10:24:25;;;;;;;2.53;1.67;;;8.30;99.90;;;;;;5006466;28;20199;-34
2023/12/13 10:26:53;;;;;;;4.07;1.60;;;8.30;99.90;;;;;;5011489;28;20188;-32
2023/12/13 10:29:21;;;;;;;2.37;1.57;;;8.30;99.90;;;;;;5011923;28;20239;-33
2023/12/13 10:31:47;;;;;;;2.10;1.50;;;8.30;99.90;;;;;;4994426;28;20218;-31
2023/12/13 10:34:14;;;;;;;2.33;1.20;;;8.30;99.90;;;;;;5012472;28;20239;-32
2023/12/13 10:36:43;;;;;;;2.60;1.20;;;8.40;99.90;;;;;;5012660;28;20324;-32
2023/12/13 10:39:13;;;;;;;4.53;1.40;;;8.40;99.90;;;;;;5011831;28;20239;-31
2023/12/13 10:41:44;;;;;;;1.93;1.10;;;8.40;99.90;;;;;;4994206;28;20204;-31
2023/12/13 10:44:19;;;;;;;2.70;0.93;;;8.40;99.90;;;;;;5011757;28;20277;-33
2023/12/13 10:46:56;;;;;;;2.47;1.50;;;8.40;99.90;;;;;;5011133;28;20191;-32
2023/12/13 10:49:24;;;;;;;10.93;5.27;;;8.40;99.90;;;;;;5011997;28;20182;-32
2023/12/13 10:51:52;;;;;;;7.33;3.97;;;8.50;99.90;;;;;;4993932;28;20191;-32
2023/12/13 10:54:21;;;;;;;3.90;2.20;;;8.50;99.90;;;;;;4995219;28;20223;-32
2023/12/13 10:56:48;;;;;;;2.70;2.10;;;8.50;99.90;;;;;;4994859;28;20206;-31
2023/12/13 10:59:16;;;;;;;2.67;1.93;;;8.60;99.90;;;;;;4983822;28;20220;-31
2023/12/13 11:01:43;;;;;;;3.00;1.50;;;8.60;99.90;;;;;;5009279;28;20218;-31
2023/12/13 11:04:18;;;;;;;3.33;1.73;;;8.70;99.90;;;;;;5008491;28;20208;-33
2023/12/13 11:06:47;;;;;;;2.83;1.93;;;8.70;99.90;;;;;;5009697;28;20190;-32
2023/12/13 11:09:14;;;;;;;2.00;1.70;;;8.70;99.90;;;;;;5006204;28;20179;-33
2023/12/13 11:11:42;;;;;;;3.37;2.30;;;8.80;99.90;;;;;;4992589;28;20188;-32
2023/12/13 11:14:12;;;;;;;3.60;2.10;;;8.90;99.90;;;;;;5007299;28;20210;-32
2023/12/13 11:16:42;;;;;;;5.53;2.27;;;9.10;99.90;;;;;;5026340;28;20183;-33
2023/12/13 11:19:19;;;;;;;2.60;1.73;;;9.10;99.90;;;;;;5012154;28;20190;-30
2023/12/13 11:21:50;;;;;;;1.87;1.30;;;9.10;99.90;;;;;;5010924;28;20207;-31
2023/12/13 11:24:26;;;;;;;1.47;1.20;;;9.20;99.90;;;;;;5009714;28;20251;-30
2023/12/13 11:26:54;;;;;;;3.20;2.10;;;9.20;99.90;;;;;;5010942;28;20279;-34
2023/12/13 11:29:22;;;;;;;3.33;2.10;;;9.30;99.90;;;;;;5010995;28;20180;-32
2023/12/13 11:32:05;;;;;;;2.97;1.87;;;9.30;99.90;;;;;;5009947;28;20203;-31
2023/12/13 11:34:31;;;;;;;4.00;2.40;;;9.30;99.90;;;;;;5002676;28;20265;-30
2023/12/13 11:37:00;;;;;;;3.47;2.20;;;9.20;99.90;;;;;;4992261;28;20322;-29
2023/12/13 11:39:28;;;;;;;3.60;2.67;;;9.30;99.90;;;;;;4994061;28;20185;-30
2023/12/13 11:41:54;;;;;;;3.43;2.17;;;9.30;99.90;;;;;;5006591;28;20201;-33
2023/12/13 11:44:19;;;;;;;3.77;2.20;;;9.20;99.90;;;;;;5008229;28;20254;-30
2023/12/13 11:46:53;;;;;;;2.07;1.30;;;9.20;99.90;;;;;;4988517;28;20174;-30
2023/12/13 11:49:20;;;;;;;3.13;1.57;;;9.20;99.90;;;;;;5006817;28;20643;-31
2023/12/13 11:51:47;;;;;;;2.17;1.37;;;9.20;99.90;;;;;;5006137;28;20192;-32
2023/12/13 11:54:13;;;;;;;1.43;0.80;;;9.10;99.90;;;;;;5011117;28;20250;-31
2023/12/13 11:56:43;;;;;;;3.40;1.40;;;9.20;99.90;;;;;;4995372;28;20180;-32
2023/12/13 11:59:09;;;;;;;3.50;2.47;;;9.30;99.90;;;;;;5000150;28;20220;-29
2023/12/13 12:01:35;;;;;;;3.47;2.10;;;9.30;99.90;;;;;;5010361;28;20296;-31
2023/12/13 12:04:02;;;;;;;1.70;1.30;;;9.30;99.90;;;;;;5011027;28;20219;-30
2023/12/13 12:06:29;;;;;;;2.53;1.60;;;9.20;99.90;;;;;;5005709;28;20178;-30
2023/12/13 12:08:55;;;;;;;1.70;1.40;;;9.20;99.90;;;;;;5006282;28;20181;-30
2023/12/13 12:11:24;;;;;;;2.47;2.27;;;9.20;99.90;;;;;;5009817;28;20187;-31
2023/12/13 12:13:52;;;;;;;1.80;0.83;;;9.20;99.90;;;;;;5009895;28;20217;-30
2023/12/13 12:16:19;;;;;;;2.73;1.40;;;9.20;99.90;;;;;;4987638;28;20181;-30
2023/12/13 12:18:49;;;;;;;1.90;1.33;;;9.20;99.90;;;;;;5010556;28;20200;-30
2023/12/13 12:21:16;;;;;;;1.37;1.23;;;9.20;99.90;;;;;;5009009;28;20197;-30
2023/12/13 12:23:44;;;;;;;2.77;1.93;;;9.20;99.90;;;;;;4989937;28;20197;-30
2023/12/13 12:26:11;;;;;;;2.47;1.30;;;9.20;99.90;;;;;;5008659;28;20177;-31
2023/12/13 12:28:40;;;;;;;2.97;1.40;;;9.20;99.90;;;;;;5007889;28;20231;-30
2023/12/13 12:31:08;;;;;;;2.67;1.90;;;9.30;99.90;;;;;;5009777;28;20248;-33
2023/12/13 12:33:35;;;;;;;3.30;1.70;;;9.30;99.90;;;;;;4985468;28;21139;-31
2023/12/13 12:36:01;;;;;;;2.30;2.07;;;9.30;99.90;;;;;;4991879;28;20239;-34
2023/12/13 12:38:28;;;;;;;2.63;2.17;;;9.30;99.90;;;;;;5001431;28;20187;-32
2023/12/13 12:40:55;;;;;;;2.13;1.80;;;9.30;99.90;;;;;;5007309;28;20188;-32
2023/12/13 12:43:22;;;;;;;3.77;1.50;;;9.30;99.90;;;;;;4990117;28;20212;-33
2023/12/13 12:45:49;;;;;;;3.23;1.70;;;9.20;99.90;;;;;;4984071;28;20186;-37
2023/12/13 12:48:15;;;;;;;1.60;1.33;;;9.20;99.90;;;;;;4991397;28;20238;-32
2023/12/13 12:50:44;;;;;;;2.33;1.30;;;9.20;99.90;;;;;;5013103;28;20209;-32
2023/12/13 12:53:13;;;;;;;1.23;1.07;;;9.20;99.90;;;;;;4982058;28;20192;-30
2023/12/13 12:55:40;;;;;;;2.83;1.07;;;9.10;99.90;;;;;;4993739;28;20177;-30